Valley, NE (68064)

6:33 AM CDT on July 22, 2017 (GMT -0500)
MUP944 | | Change Station
Active Advisory: Heat Advisory

Elev 1167 ft 41.36 °N, 96.41 °W | Updated 74 days ago

Overcast
Overcast
65.0 °F
Feels Like 65.0 °F
N
-
Wind Variable Wind from North

Today
High -- | Low -- °F
--% Chance of Precip.
Yesterday
High -- | Low -- °F
Precip. -- in
Pressure 29.81 in
Visibility 2.0 miles
Clouds Overcast 200 ft
Dew Point Not available.
Humidity Not available.
Rainfall 0.00 in
Snow Depth Not available.
6:11 AM 8:51 PM
Waning Crescent, 1% visible
METAR KFET 221115Z AUTO 03007KT 2SM BR OVC002 25/25 A2981 RMK AO2 T02500246
Pressure 29.81 in
Visibility 2.0 miles
Clouds Overcast 200 ft
Dew Point Not available.
Humidity Not available.
Rainfall 0.00 in
Snow Depth Not available.
6:11 AM 8:51 PM
Waning Crescent, 1% visible
METAR KFET 221115Z AUTO 03007KT 2SM BR OVC002 25/25 A2981 RMK AO2 T02500246

Get Your Daily Forecast Email!

Thanks for signing up!

Be on the lookout for a verification email in your inbox.

You'll start receiving severe weather alerts in your inbox..

×

10-Day Weather Forecast

Almanac

Astronomy

Jul. 22, 2017 Rise Set
Actual Time
Civil Twilight
Nautical Twilight
Astronomical Twilight
Moon
Length of Visible Light
Length of Day
Tomorrow will be .
, % of the Moon is Illuminated

Today's Extremes

State Highs State Lows

Community

WunderPhotos

Category 6

Welcome to Category 6. This is the collective home for Weather Underground's featured writeups by Dr. Jeff Masters (right), Bob Henson (left), Chris Burt, and other regular contributors.

Nearby

Air Quality

  Air Quality AQ Index Pollutant
Not available.

Snow Depth

Station Depth Elevation

Earthquake Activity

City Distance Mag. Time & Date
Minimum magnitude displayed is 2.5.

Coastal Water Temperatures

Place Temperature

Stations

Nearby Weather Stations

Station Location Temp. Windchill Dew Point Humidity Wind Precip. Elev Updated Type
                   

Watches & Warnings

Heat Advisory
Issued: 3:38 AM CDT Jul. 22, 2017 – National Weather Service

... Heat advisory remains in effect until 7 PM CDT this evening...

* temperature... heat indices should reach the 100 to 110 degree
range again this afternoon into the early evening.

* Impacts... prolonged exposure to heat and humidity may lead to
heat-related illness if precautions are not taken.

Precautionary/preparedness actions...

A heat advisory means that a period of hot temperatures is
expected. The combination of hot temperatures and high humidity
will combine to create a situation in which heat illnesses are
possible. Drink plenty of fluids, stay in an air-conditioned
room, stay out of the sun and check up on relatives and
neighbors.

Take extra precautions if you work or spend time outside. When
possible, reschedule strenuous activities to early morning or
evening. Know the signs and symptoms of heat exhaustion and heat
stroke. Wear light weight and loose fitting clothing when
possible and drink plenty of water.